Time;durP1;ratioP1;P1;durP2;ratioP2;P2;SDS_P1;SDS_P2;PMS_P1;PMS_P2;Temp;Humidity;BMP_temperature;BMP_pressure;BME280_temperature;BME280_humidity;BME280_pressure;Samples;Min_cycle;Max_cycle;Signal;HPM_P1;HPM_P2
2022/05/29 00:00:19;;;;;;;6.60;1.30;;;;;;;11.16;94.55;100526.13;5205569;28;20029;-73
2022/05/29 00:02:49;;;;;;;8.65;1.55;;;;;;;11.07;94.96;100521.22;5221049;28;20032;-73
2022/05/29 00:05:20;;;;;;;11.65;1.95;;;;;;;11.18;95.04;100519.06;5212217;28;20464;-73
2022/05/29 00:07:50;;;;;;;8.65;1.65;;;;;;;11.19;94.96;100512.91;5216100;28;20384;-73
2022/05/29 00:10:21;;;;;;;8.27;1.50;;;;;;;11.02;95.09;100518.84;5217419;28;20052;-73
2022/05/29 00:12:51;;;;;;;13.30;1.75;;;;;;;11.02;94.43;100508.41;5231916;28;20021;-72
2022/05/29 00:15:21;;;;;;;9.52;1.80;;;;;;;11.03;94.19;100508.31;5205166;28;20048;-74
2022/05/29 00:17:52;;;;;;;9.90;1.67;;;;;;;11.14;94.68;100509.59;5211603;28;20497;-73
2022/05/29 00:20:22;;;;;;;8.43;1.50;;;;;;;11.03;94.46;100500.47;5215752;28;20381;-73
2022/05/29 00:22:52;;;;;;;10.00;2.03;;;;;;;11.06;94.73;100508.19;5223386;28;20070;-73
2022/05/29 00:25:22;;;;;;;9.60;1.52;;;;;;;11.08;94.80;100506.41;5211976;28;20028;-73
2022/05/29 00:27:53;;;;;;;8.48;1.70;;;;;;;11.18;94.73;100502.50;5214344;28;20108;-73
2022/05/29 00:30:23;;;;;;;7.60;1.50;;;;;;;11.15;94.50;100503.50;5213158;28;20129;-73
2022/05/29 00:32:53;;;;;;;8.10;1.63;;;;;;;11.20;93.80;100500.66;5212174;28;20495;-72
2022/05/29 00:35:24;;;;;;;10.82;1.90;;;;;;;11.10;94.18;100504.56;5216015;28;20110;-73
2022/05/29 00:37:54;;;;;;;8.27;1.70;;;;;;;11.19;94.49;100502.44;5207704;28;20032;-73
2022/05/29 00:40:33;;;;;;;8.77;1.50;;;;;;;11.25;93.74;100494.34;5224067;28;20029;-73
2022/05/29 00:43:03;;;;;;;7.35;1.75;;;;;;;11.13;94.54;100497.44;5228466;28;20033;-73
2022/05/29 00:45:45;;;;;;;8.90;1.77;;;;;;;11.20;95.31;100488.47;5216574;28;20024;-73
2022/05/29 00:48:18;;;;;;;8.10;1.33;;;;;;;11.15;96.19;100494.78;5220070;28;20025;-73
2022/05/29 00:50:51;;;;;;;10.75;1.80;;;;;;;11.00;98.51;100486.69;5215214;28;20029;-73
2022/05/29 00:53:22;;;;;;;4.93;1.20;;;;;;;11.02;100.00;100481.31;5222626;28;20119;-73
2022/05/29 00:56:01;;;;;;;8.00;1.90;;;;;;;10.95;100.00;100483.38;5213990;28;20181;-73
2022/05/29 00:58:31;;;;;;;5.63;1.40;;;;;;;10.98;100.00;100478.88;5211182;28;20025;-73
2022/05/29 01:01:03;;;;;;;10.68;1.88;;;;;;;10.88;100.00;100471.47;5218215;28;20040;-72
2022/05/29 01:03:33;;;;;;;14.88;2.88;;;;;;;10.91;100.00;100473.94;5220935;28;20509;-72
2022/05/29 01:06:03;;;;;;;9.10;1.85;;;;;;;10.91;100.00;100466.97;5220780;28;20041;-71
2022/05/29 01:08:36;;;;;;;7.35;1.65;;;;;;;10.87;100.00;100467.13;5217153;28;20017;-73
2022/05/29 01:11:23;;;;;;;6.82;1.60;;;;;;;10.72;100.00;100465.09;5218998;28;20116;-72
2022/05/29 01:14:25;;;;;;;11.57;1.77;;;;;;;10.96;100.00;100461.53;5213746;28;20021;-73
2022/05/29 01:17:17;;;;;;;8.93;1.40;;;;;;;10.93;100.00;100459.06;5212920;28;20351;-73
2022/05/29 01:20:06;;;;;;;6.55;1.52;;;;;;;10.97;100.00;100456.25;5210824;28;20033;-73
2022/05/29 01:23:14;;;;;;;7.22;1.60;;;;;;;10.85;100.00;100455.91;5212699;28;20025;-73
2022/05/29 01:26:11;;;;;;;7.50;1.73;;;;;;;10.82;100.00;100453.41;5203046;28;20030;-73
2022/05/29 01:28:53;;;;;;;8.00;1.90;;;;;;;10.70;100.00;100443.41;5208843;28;20517;-72
2022/05/29 01:31:38;;;;;;;7.18;1.60;;;;;;;10.83;100.00;100449.88;5216436;28;20402;-73
2022/05/29 01:34:11;;;;;;;5.30;1.70;;;;;;;10.87;100.00;100448.84;5220569;28;20064;-71
2022/05/29 01:36:58;;;;;;;5.97;1.63;;;;;;;10.80;100.00;100443.00;5218414;28;20025;-72
2022/05/29 01:39:35;;;;;;;6.32;1.67;;;;;;;10.85;100.00;100434.97;5208602;28;20029;-73
2022/05/29 01:42:16;;;;;;;8.60;1.50;;;;;;;10.79;100.00;100440.44;5212556;28;20025;-73
2022/05/29 01:44:58;;;;;;;7.05;1.70;;;;;;;10.83;100.00;100431.56;5210407;28;20104;-73
2022/05/29 01:47:37;;;;;;;5.57;1.60;;;;;;;10.76;100.00;100430.97;5209719;28;20113;-73
2022/05/29 01:50:26;;;;;;;7.78;1.65;;;;;;;10.74;100.00;100442.38;5210564;28;20025;-73
2022/05/29 01:53:02;;;;;;;5.57;1.58;;;;;;;10.73;100.00;100435.44;5210159;28;20031;-73
2022/05/29 01:55:46;;;;;;;10.70;1.70;;;;;;;10.79;100.00;100432.59;5212753;28;20045;-72
2022/05/29 01:58:31;;;;;;;5.47;1.23;;;;;;;10.70;100.00;100427.72;5209967;28;20114;-73
2022/05/29 02:01:04;;;;;;;8.90;1.73;;;;;;;10.71;100.00;100426.81;5239007;23;20628;-71
2022/05/29 02:03:39;;;;;;;7.43;1.48;;;;;;;10.79;100.00;100429.97;5191557;28;20037;-71
2022/05/29 02:06:14;;;;;;;7.70;1.35;;;;;;;10.79;100.00;100425.59;5190890;28;20279;-70
2022/05/29 02:08:59;;;;;;;7.50;1.52;;;;;;;10.77;100.00;100422.22;5191339;28;20029;-71
2022/05/29 02:11:31;;;;;;;7.53;1.58;;;;;;;10.76;100.00;100415.28;5192410;28;20030;-71
2022/05/29 02:14:15;;;;;;;7.90;1.70;;;;;;;10.81;100.00;100417.69;5190463;28;20053;-71
2022/05/29 02:16:55;;;;;;;9.73;1.88;;;;;;;10.82;100.00;100419.41;5190687;28;20022;-71
2022/05/29 02:19:35;;;;;;;8.63;2.10;;;;;;;10.82;100.00;100422.03;5193326;28;20029;-71
2022/05/29 02:22:12;;;;;;;8.55;1.95;;;;;;;10.69;100.00;100419.03;5191963;28;20021;-71
2022/05/29 02:24:46;;;;;;;6.00;1.55;;;;;;;10.79;100.00;100411.66;5191809;28;20387;-72
2022/05/29 02:27:50;;;;;;;10.80;1.77;;;;;;;10.71;100.00;100413.75;5193824;28;20034;-71
2022/05/29 02:30:37;;;;;;;5.65;1.67;;;;;;;10.82;100.00;100414.19;5197802;28;20032;-71
2022/05/29 02:33:16;;;;;;;7.18;1.67;;;;;;;10.90;100.00;100406.88;5196690;28;20426;-71
2022/05/29 02:35:55;;;;;;;6.25;1.50;;;;;;;10.77;100.00;100410.88;5191028;28;20100;-72
2022/05/29 02:38:36;;;;;;;7.32;1.80;;;;;;;10.74;100.00;100409.25;5192481;28;20091;-71
2022/05/29 02:41:14;;;;;;;5.80;1.67;;;;;;;10.70;100.00;100404.19;5197900;28;20104;-71
2022/05/29 02:44:17;;;;;;;9.88;2.45;;;;;;;10.75;100.00;100407.47;5195700;28;20025;-71
2022/05/29 02:46:52;;;;;;;8.93;1.95;;;;;;;10.78;100.00;100400.38;5196685;28;20147;-71
2022/05/29 02:49:35;;;;;;;7.93;1.90;;;;;;;10.60;100.00;100402.84;5191612;28;20030;-72
2022/05/29 02:52:09;;;;;;;6.88;1.70;;;;;;;10.73;100.00;100401.47;5194276;28;20029;-72
2022/05/29 02:54:40;;;;;;;7.90;1.83;;;;;;;10.76;100.00;100403.94;5206457;28;20116;-72
2022/05/29 02:57:10;;;;;;;6.25;2.15;;;;;;;10.79;100.00;100403.81;5190548;28;20101;-71
2022/05/29 02:59:52;;;;;;;8.20;1.80;;;;;;;10.90;100.00;100399.03;5194456;28;20409;-72
2022/05/29 03:03:04;;;;;;;7.57;2.15;;;;;;;10.55;100.00;100394.34;5193836;28;20105;-71
2022/05/29 03:05:52;;;;;;;8.95;1.90;;;;;;;10.53;100.00;100399.59;5189945;28;20109;-71
2022/05/29 03:08:43;;;;;;;8.65;2.00;;;;;;;10.65;100.00;100406.16;5185066;28;20037;-72
2022/05/29 03:11:41;;;;;;;7.50;2.00;;;;;;;10.45;100.00;100403.41;5192240;28;20033;-72
2022/05/29 03:14:29;;;;;;;10.98;2.40;;;;;;;10.51;100.00;100398.81;5188285;28;20060;-72
2022/05/29 03:17:21;;;;;;;11.80;1.83;;;;;;;10.57;100.00;100405.56;5190768;28;20040;-72
2022/05/29 03:20:00;;;;;;;8.40;1.90;;;;;;;10.56;100.00;100390.81;5205382;28;20445;-72
2022/05/29 03:22:43;;;;;;;9.52;2.13;;;;;;;10.61;100.00;100389.72;5191428;28;20132;-71
2022/05/29 03:25:23;;;;;;;11.40;1.77;;;;;;;10.75;100.00;100391.78;5190075;28;20037;-72
2022/05/29 03:27:56;;;;;;;7.88;1.90;;;;;;;10.63;100.00;100398.34;5190754;28;20521;-72
2022/05/29 03:30:34;;;;;;;7.85;1.60;;;;;;;10.69;100.00;100398.09;5191624;28;20076;-72
2022/05/29 03:33:09;;;;;;;9.18;1.83;;;;;;;10.62;100.00;100390.56;5191776;28;20021;-71
2022/05/29 03:36:07;;;;;;;13.00;2.05;;;;;;;10.71;100.00;100390.22;5189881;28;20356;-72
2022/05/29 03:38:38;;;;;;;5.93;1.80;;;;;;;10.58;100.00;100389.00;5187990;28;20419;-72
2022/05/29 03:41:15;;;;;;;10.63;1.90;;;;;;;10.60;100.00;100395.88;5197131;28;20037;-72
2022/05/29 03:43:45;;;;;;;8.98;1.88;;;;;;;10.67;100.00;100388.66;5190148;28;20217;-72
2022/05/29 03:46:15;;;;;;;7.55;1.73;;;;;;;10.66;100.00;100379.09;5192884;28;20025;-71
2022/05/29 03:48:45;;;;;;;9.90;1.98;;;;;;;10.67;100.00;100388.66;5189446;28;20116;-72
2022/05/29 03:51:16;;;;;;;6.97;1.80;;;;;;;10.77;100.00;100382.13;5193067;28;20283;-72
2022/05/29 03:53:46;;;;;;;8.30;1.90;;;;;;;10.68;100.00;100377.28;5190050;28;20277;-71
2022/05/29 03:56:17;;;;;;;8.50;1.70;;;;;;;10.77;100.00;100379.53;5192125;28;20411;-71
2022/05/29 03:58:47;;;;;;;7.87;1.90;;;;;;;10.89;100.00;100386.88;5189713;28;20084;-72
2022/05/29 04:01:17;;;;;;;9.07;2.05;;;;;;;10.85;100.00;100373.06;5192158;28;20387;-72
2022/05/29 04:03:48;;;;;;;5.20;1.83;;;;;;;10.68;100.00;100367.66;5190581;28;20034;-72
2022/05/29 04:06:18;;;;;;;4.07;1.65;;;;;;;10.88;100.00;100372.13;5192838;28;20110;-71
2022/05/29 04:14:37;;;;;;;10.40;2.10;;;;;;;10.76;100.00;100372.59;5190128;28;20100;-72
2022/05/29 04:17:09;;;;;;;8.20;2.00;;;;;;;10.88;100.00;100372.13;5191200;28;20021;-71
2022/05/29 04:19:39;;;;;;;9.68;1.88;;;;;;;10.87;100.00;100362.56;5189670;28;20064;-72
2022/05/29 04:22:14;;;;;;;6.25;2.13;;;;;;;10.96;100.00;100357.81;5192412;28;20479;-72
2022/05/29 04:24:44;;;;;;;7.18;2.13;;;;;;;10.99;100.00;100360.31;5192567;28;20035;-72
2022/05/29 04:27:15;;;;;;;6.60;1.73;;;;;;;10.89;100.00;100360.75;5188258;28;20022;-72
2022/05/29 04:29:46;;;;;;;11.40;2.30;;;;;;;10.98;100.00;100362.97;5192495;28;20070;-72
2022/05/29 04:35:05;;;;;;;11.35;2.22;;;;;;;11.05;100.00;100360.91;5191286;28;20276;-72
2022/05/29 04:37:35;;;;;;;10.45;2.20;;;;;;;11.20;100.00;100368.13;5188652;28;20030;-72
2022/05/29 04:40:06;;;;;;;6.80;2.00;;;;;;;11.09;100.00;100364.25;5194812;28;20035;-72
2022/05/29 04:42:37;;;;;;;12.18;2.10;;;;;;;11.20;100.00;100362.91;5190624;28;20475;-72
2022/05/29 04:45:07;;;;;;;9.57;3.03;;;;;;;11.15;100.00;100357.00;5191750;28;20039;-71
2022/05/29 04:47:38;;;;;;;5.75;1.90;;;;;;;11.16;100.00;100355.22;5188377;28;20281;-72
2022/05/29 04:50:09;;;;;;;6.25;2.10;;;;;;;11.32;100.00;100358.91;5206783;28;20053;-72
2022/05/29 04:52:39;;;;;;;10.55;2.08;;;;;;;11.37;100.00;100351.72;5189092;28;20029;-72
2022/05/29 04:55:10;;;;;;;10.10;1.98;;;;;;;11.46;100.00;100354.78;5192296;28;20036;-72
2022/05/29 04:57:40;;;;;;;9.85;2.70;;;;;;;11.45;99.76;100355.69;5188583;28;20026;-72
2022/05/29 05:00:11;;;;;;;9.85;2.25;;;;;;;11.66;98.62;100353.97;5191759;28;20041;-71
2022/05/29 05:02:42;;;;;;;7.95;2.30;;;;;;;11.68;98.19;100353.00;5188876;28;20507;-72
2022/05/29 05:05:13;;;;;;;9.50;2.00;;;;;;;11.63;98.25;100354.94;5189479;28;20060;-72
2022/05/29 05:07:43;;;;;;;7.63;1.77;;;;;;;11.77;97.61;100355.19;5187846;28;20022;-72
2022/05/29 05:10:15;;;;;;;8.43;1.90;;;;;;;11.85;97.49;100345.25;5196125;28;20026;-71
2022/05/29 05:12:46;;;;;;;12.48;2.30;;;;;;;11.87;96.54;100353.91;5189503;28;20273;-72
2022/05/29 05:15:16;;;;;;;11.98;1.90;;;;;;;11.83;96.11;100351.47;5191734;28;20017;-72
2022/05/29 05:17:47;;;;;;;11.02;2.20;;;;;;;11.69;97.36;100352.09;5188529;28;20497;-72
2022/05/29 05:20:17;;;;;;;7.78;2.13;;;;;;;11.67;97.78;100346.06;5191712;28;20041;-72
2022/05/29 05:22:47;;;;;;;9.18;2.50;;;;;;;11.65;98.11;100344.44;5188790;28;20046;-72
2022/05/29 05:25:18;;;;;;;10.00;2.03;;;;;;;11.84;98.08;100342.69;5191446;28;20061;-72
2022/05/29 05:27:48;;;;;;;8.00;1.88;;;;;;;11.92;96.82;100343.22;5188076;28;20022;-72
2022/05/29 05:30:18;;;;;;;10.32;2.13;;;;;;;12.01;95.40;100341.03;5192279;28;20034;-72
2022/05/29 05:32:49;;;;;;;11.52;2.08;;;;;;;11.91;95.04;100344.09;5191173;28;20037;-72
2022/05/29 05:35:19;;;;;;;7.90;2.00;;;;;;;11.86;95.38;100344.34;5191561;28;20021;-71
2022/05/29 05:37:49;;;;;;;8.50;2.20;;;;;;;11.81;95.38;100348.91;5187889;28;20607;-72
2022/05/29 05:40:19;;;;;;;9.40;1.70;;;;;;;11.77;95.92;100347.34;5195098;28;20021;-72
2022/05/29 05:42:50;;;;;;;11.55;2.47;;;;;;;11.93;95.88;100348.38;5189561;28;20338;-72
2022/05/29 05:45:20;;;;;;;12.05;2.50;;;;;;;11.93;96.34;100348.38;5190851;28;20477;-72
2022/05/29 05:47:50;;;;;;;13.68;2.03;;;;;;;11.96;96.16;100343.00;5188444;28;20044;-72
2022/05/29 05:50:21;;;;;;;11.90;2.20;;;;;;;11.88;95.71;100345.13;5191863;28;20175;-72
2022/05/29 05:52:52;;;;;;;11.18;2.10;;;;;;;11.91;95.26;100344.97;5192543;28;20030;-72
2022/05/29 05:55:22;;;;;;;11.38;2.15;;;;;;;11.90;96.65;100343.28;5194575;28;20021;-72
2022/05/29 05:57:53;;;;;;;10.55;1.98;;;;;;;11.91;94.99;100344.09;5192011;28;20075;-71
2022/05/29 06:00:23;;;;;;;10.57;2.28;;;;;;;11.75;94.70;100349.19;5193288;28;20025;-72
2022/05/29 06:02:53;;;;;;;7.80;2.00;;;;;;;11.71;95.89;100352.88;5192022;28;20380;-72
2022/05/29 06:05:26;;;;;;;9.85;2.00;;;;;;;11.53;96.90;100348.41;5192555;28;20230;-72
2022/05/29 06:07:56;;;;;;;12.75;2.35;;;;;;;11.48;96.85;100349.50;5193039;28;20268;-72
2022/05/29 06:10:27;;;;;;;8.73;2.17;;;;;;;11.68;96.69;100350.38;5196360;28;20398;-72
2022/05/29 06:13:05;;;;;;;9.35;2.10;;;;;;;11.73;95.13;100350.16;5191290;28;20732;-72
2022/05/29 06:15:36;;;;;;;9.60;2.40;;;;;;;11.64;96.09;100345.34;5191146;28;20029;-72
2022/05/29 06:18:06;;;;;;;12.13;2.22;;;;;;;11.81;96.26;100351.53;5193935;28;20029;-71
2022/05/29 06:20:37;;;;;;;8.60;2.10;;;;;;;11.77;97.11;100355.19;5193119;28;20021;-71
2022/05/29 06:23:08;;;;;;;11.90;2.20;;;;;;;11.69;96.77;100359.94;5190437;28;20420;-72
2022/05/29 06:25:42;;;;;;;12.02;2.17;;;;;;;11.78;96.06;100354.28;5194201;28;20034;-72
2022/05/29 06:28:12;;;;;;;12.73;2.15;;;;;;;11.90;95.28;100359.00;5193425;28;20371;-72
2022/05/29 06:30:43;;;;;;;9.98;2.10;;;;;;;11.94;94.33;100350.06;5194310;28;20036;-72
2022/05/29 06:33:14;;;;;;;12.05;2.20;;;;;;;11.93;94.49;100345.75;5194420;28;20083;-72
2022/05/29 06:35:45;;;;;;;10.43;2.15;;;;;;;12.23;93.63;100347.00;5189641;28;20018;-71
2022/05/29 06:38:15;;;;;;;11.40;2.67;;;;;;;12.80;90.43;100344.25;5193375;28;20060;-72
2022/05/29 06:40:49;;;;;;;8.30;2.20;;;;;;;13.09;89.29;100338.47;5194352;28;20033;-72
2022/05/29 06:43:19;;;;;;;13.40;2.38;;;;;;;12.74;88.99;100348.94;5196662;28;20052;-72
2022/05/29 06:45:56;;;;;;;9.50;1.93;;;;;;;12.71;90.42;100344.69;5190573;28;20058;-72
2022/05/29 06:48:26;;;;;;;8.15;1.85;;;;;;;13.03;89.49;100341.41;5188748;28;20363;-73
2022/05/29 06:50:57;;;;;;;10.85;2.33;;;;;;;13.18;88.73;100335.38;5190156;28;20100;-72
2022/05/29 06:53:28;;;;;;;8.85;2.10;;;;;;;13.30;87.83;100330.38;5191471;28;20034;-72
2022/05/29 06:55:58;;;;;;;14.67;2.17;;;;;;;12.95;86.87;100338.28;5192157;28;20490;-72
2022/05/29 06:58:29;;;;;;;12.87;2.10;;;;;;;12.73;89.77;100342.84;5191701;28;20346;-72
2022/05/29 07:06:59;;;;;;;12.20;1.88;;;;;;;13.02;88.52;100339.69;5193107;28;20398;-72
2022/05/29 07:09:32;;;;;;;9.30;2.08;;;;;;;12.87;87.85;100340.41;5191220;28;20258;-72
2022/05/29 07:12:08;;;;;;;11.25;2.17;;;;;;;12.56;88.78;100340.19;5195029;28;20026;-72
2022/05/29 07:14:42;;;;;;;9.98;2.10;;;;;;;12.86;89.26;100340.47;5191208;28;20120;-72
2022/05/29 07:17:13;;;;;;;8.95;2.03;;;;;;;12.90;89.40;100335.84;5196759;28;20483;-72
2022/05/29 07:19:44;;;;;;;7.88;1.98;;;;;;;13.51;88.20;100333.66;5191102;28;20120;-73
2022/05/29 07:22:15;;;;;;;10.10;2.28;;;;;;;13.27;86.28;100334.94;5188320;28;20235;-72
2022/05/29 07:24:46;;;;;;;12.07;2.50;;;;;;;14.31;83.82;100322.38;5197444;28;20029;-72
2022/05/29 07:27:16;;;;;;;14.52;2.03;;;;;;;14.57;83.61;100329.69;5191738;28;20047;-72
2022/05/29 07:29:46;;;;;;;10.02;2.13;;;;;;;14.31;83.91;100338.16;5196807;28;20037;-72
2022/05/29 07:32:17;;;;;;;10.77;2.10;;;;;;;13.59;86.19;100331.50;5193201;28;20128;-72
2022/05/29 07:34:47;;;;;;;11.20;1.97;;;;;;;13.57;87.85;100338.63;5191149;28;20022;-73
2022/05/29 07:37:18;;;;;;;10.30;2.00;;;;;;;13.35;90.23;100341.50;5192322;28;20280;-72
2022/05/29 07:39:51;;;;;;;8.75;2.20;;;;;;;13.10;90.35;100333.13;5193325;28;20449;-72
2022/05/29 07:45:10;;;;;;;12.02;2.40;;;;;;;12.88;91.30;100326.38;5193194;28;20021;-72
2022/05/29 07:47:43;;;;;;;12.27;2.20;;;;;;;13.00;90.05;100331.03;5189352;28;20475;-72
2022/05/29 07:50:18;;;;;;;11.43;2.10;;;;;;;13.17;89.10;100333.69;5188880;28;20022;-72
2022/05/29 07:52:52;;;;;;;12.95;2.17;;;;;;;14.05;87.02;100326.38;5192447;28;20029;-72
2022/05/29 07:55:22;;;;;;;10.90;2.10;;;;;;;14.09;85.05;100321.81;5188979;28;20108;-72
2022/05/29 07:57:53;;;;;;;11.23;2.10;;;;;;;13.85;86.51;100328.38;5188744;28;20104;-71
2022/05/29 08:00:23;;;;;;;11.55;2.20;;;;;;;13.72;86.02;100327.34;5191430;28;20075;-72
2022/05/29 08:02:54;;;;;;;9.60;2.00;;;;;;;13.51;87.20;100328.41;5239600;23;20075;-76
2022/05/29 08:05:24;;;;;;;10.60;2.05;;;;;;;13.37;87.05;100336.19;5232737;28;20082;-76
2022/05/29 08:07:55;;;;;;;10.48;2.20;;;;;;;13.28;86.36;100334.00;5231441;28;20028;-76
2022/05/29 08:10:26;;;;;;;8.77;2.08;;;;;;;13.36;86.07;100331.81;5234618;28;20424;-76
2022/05/29 08:12:56;;;;;;;11.38;2.17;;;;;;;13.39;86.98;100331.69;5218615;28;20083;-76
2022/05/29 08:15:27;;;;;;;13.05;2.35;;;;;;;13.32;88.92;100340.78;5212679;28;20023;-74
2022/05/29 08:17:57;;;;;;;9.15;2.00;;;;;;;13.33;88.82;100340.72;5215949;28;20436;-76
2022/05/29 08:20:29;;;;;;;9.82;1.98;;;;;;;13.37;89.58;100346.69;5210877;28;20021;-76
2022/05/29 08:22:59;;;;;;;7.13;2.40;;;;;;;13.68;89.20;100337.13;5211141;28;20436;-76
2022/05/29 08:31:07;;;;;;;11.95;2.50;;;;;;;12.99;92.22;100352.94;5209973;28;20086;-76
2022/05/29 08:33:38;;;;;;;7.63;1.80;;;;;;;12.78;94.41;100351.34;5210985;28;20422;-76
2022/05/29 08:36:19;;;;;;;12.95;2.05;;;;;;;12.37;93.96;100360.31;5211955;28;20078;-76
2022/05/29 08:38:52;;;;;;;9.48;2.00;;;;;;;12.63;96.61;100357.31;5209340;28;20384;-76
2022/05/29 08:41:40;;;;;;;10.02;2.25;;;;;;;12.60;96.70;100352.22;5211570;28;20371;-76
2022/05/29 08:44:15;;;;;;;9.82;2.35;;;;;;;12.68;97.12;100359.72;5213043;28;20432;-75
2022/05/29 08:46:52;;;;;;;9.68;2.33;;;;;;;12.74;95.54;100343.69;5215946;28;20056;-76
2022/05/29 08:49:26;;;;;;;10.77;2.17;;;;;;;12.91;94.79;100341.97;5208537;28;20159;-76
2022/05/29 08:52:07;;;;;;;12.30;1.95;;;;;;;12.97;92.54;100331.19;5210625;28;20017;-76
2022/05/29 08:54:47;;;;;;;11.32;1.77;;;;;;;13.30;91.04;100335.63;5212010;28;20024;-76
2022/05/29 08:57:40;;;;;;;9.68;2.17;;;;;;;13.61;88.54;100324.41;5213129;28;20513;-76
2022/05/29 09:00:41;;;;;;;9.63;2.15;;;;;;;13.84;87.53;100324.03;5215717;28;20070;-75
2022/05/29 09:03:36;;;;;;;11.65;2.17;;;;;;;14.21;84.21;100316.78;5213143;28;20125;-75
2022/05/29 09:06:12;;;;;;;4.70;1.73;;;;;;;14.38;85.15;100318.47;5211955;28;20133;-75
2022/05/29 09:08:55;;;;;;;9.55;1.75;;;;;;;14.64;83.93;100312.63;5207924;28;20022;-76
2022/05/29 09:11:31;;;;;;;7.60;1.73;;;;;;;14.52;85.08;100313.31;5213297;28;20107;-76
2022/05/29 09:14:15;;;;;;;5.75;1.65;;;;;;;14.50;82.27;100309.91;5211170;28;20402;-76
2022/05/29 09:16:51;;;;;;;6.03;1.45;;;;;;;14.39;81.97;100317.56;5208141;28;20120;-76
2022/05/29 09:19:33;;;;;;;6.95;2.13;;;;;;;14.56;83.53;100315.69;5209733;28;20025;-76
2022/05/29 09:22:14;;;;;;;7.43;1.80;;;;;;;14.36;84.53;100315.94;5209683;28;20136;-76
2022/05/29 09:24:53;;;;;;;8.65;1.52;;;;;;;14.35;84.84;100324.75;5208957;28;20036;-76
2022/05/29 09:27:23;;;;;;;5.85;1.30;;;;;;;14.44;83.53;100328.66;5213462;28;20761;-76
2022/05/29 09:29:53;;;;;;;9.52;1.85;;;;;;;14.65;83.92;100327.47;5213945;28;20052;-76
2022/05/29 09:32:30;;;;;;;5.13;1.50;;;;;;;14.40;83.04;100327.97;5215541;28;20036;-76
2022/05/29 09:35:16;;;;;;;4.90;1.20;;;;;;;14.08;85.26;100325.38;5218657;28;20398;-73
2022/05/29 09:37:56;;;;;;;4.38;1.40;;;;;;;14.35;83.87;100323.91;5215015;28;20036;-73
2022/05/29 09:40:36;;;;;;;4.68;1.42;;;;;;;14.00;85.57;100327.56;5220898;28;20037;-73
2022/05/29 09:43:32;;;;;;;4.82;1.20;;;;;;;13.98;85.55;100330.28;5212670;28;20029;-73
2022/05/29 09:46:22;;;;;;;;;;;;;;;14.36;85.96;100320.34;5209417;28;20045;-73
2022/05/29 09:52:00;;;;;;;4.40;1.45;;;;;;;13.91;85.46;100315.75;5220096;28;20095;-72
2022/05/29 09:54:34;;;;;;;3.85;1.20;;;;;;;13.96;86.05;100305.88;5209336;28;20048;-73
2022/05/29 09:57:22;;;;;;;6.32;1.27;;;;;;;14.02;86.54;100309.91;5205217;28;20522;-74
2022/05/29 10:00:31;;;;;;;6.45;1.50;;;;;;;14.22;84.50;100307.97;5212317;28;20049;-73
2022/05/29 10:03:05;;;;;;;4.22;1.25;;;;;;;14.15;82.68;100310.97;5214712;28;20041;-73
2022/05/29 10:05:41;;;;;;;2.72;1.00;;;;;;;14.32;82.03;100308.31;5214847;28;20065;-73
2022/05/29 10:08:19;;;;;;;;;;;;;;;14.21;82.67;100305.41;5210924;28;20035;-73
2022/05/29 10:10:49;;;;;;;4.07;1.05;;;;;;;14.33;82.59;100304.75;5212523;28;19917;-73
2022/05/29 10:13:36;;;;;;;3.17;1.00;;;;;;;14.40;81.38;100314.84;5215421;28;20036;-73
2022/05/29 10:16:11;;;;;;;6.10;1.38;;;;;;;14.43;82.84;100309.41;5216902;28;20287;-73
2022/05/29 10:18:42;;;;;;;4.93;1.50;;;;;;;14.65;82.94;100311.69;5216993;28;20060;-74
2022/05/29 10:21:23;;;;;;;3.50;1.30;;;;;;;14.75;81.76;100312.88;5210715;28;20506;-73
2022/05/29 10:24:37;;;;;;;6.95;1.33;;;;;;;15.26;79.50;100298.41;5208063;28;20029;-73
2022/05/29 10:27:27;;;;;;;5.43;1.17;;;;;;;15.93;79.49;100308.38;5210157;28;20025;-73
2022/05/29 10:30:08;;;;;;;3.83;1.17;;;;;;;15.36;81.38;100310.09;5207446;28;20049;-74
2022/05/29 10:32:42;;;;;;;6.00;1.50;;;;;;;15.69;82.77;100308.09;5213563;28;20132;-74
2022/05/29 10:35:15;;;;;;;6.38;1.52;;;;;;;15.83;82.84;100310.75;5212196;28;20505;-73
2022/05/29 10:37:46;;;;;;;6.90;1.50;;;;;;;15.99;80.58;100308.84;5205827;28;20033;-74
2022/05/29 10:40:31;;;;;;;5.07;1.23;;;;;;;16.05;82.17;100302.38;5213850;28;20686;-73
2022/05/29 10:43:06;;;;;;;5.80;1.05;;;;;;;16.11;78.10;100292.28;5210313;28;20122;-74
2022/05/29 10:45:46;;;;;;;4.03;1.10;;;;;;;15.46;79.72;100307.78;5208288;28;20498;-74
2022/05/29 10:48:26;;;;;;;4.80;1.20;;;;;;;14.94;82.34;100309.09;5210008;28;20033;-73
2022/05/29 10:51:07;;;;;;;4.45;0.80;;;;;;;14.49;84.25;100310.84;5210740;28;20614;-73
2022/05/29 10:54:19;;;;;;;5.40;1.05;;;;;;;14.34;85.27;100307.28;5210659;28;20127;-73
2022/05/29 10:56:55;;;;;;;3.28;0.90;;;;;;;14.56;88.53;100301.69;5207067;28;20041;-73
2022/05/29 10:59:44;;;;;;;2.92;0.73;;;;;;;14.43;89.26;100301.50;5209328;28;20029;-74
2022/05/29 11:05:56;;;;;;;3.95;0.90;;;;;;;14.73;87.57;100299.81;5212051;28;20174;-74
2022/05/29 11:08:51;;;;;;;2.60;0.77;;;;;;;15.25;85.89;100298.47;5207415;28;20036;-74
2022/05/29 11:11:31;;;;;;;1.63;0.70;;;;;;;15.19;83.74;100296.22;5211846;28;20076;-74
2022/05/29 11:14:38;;;;;;;2.05;0.77;;;;;;;15.66;83.96;100288.97;5212319;28;20115;-73
2022/05/29 11:17:38;;;;;;;3.90;1.13;;;;;;;16.21;81.21;100288.09;5205342;28;20059;-73
2022/05/29 11:20:56;;;;;;;4.50;1.00;;;;;;;16.09;79.60;100274.84;5206537;28;20048;-73
2022/05/29 11:23:57;;;;;;;2.40;0.93;;;;;;;16.26;82.37;100285.19;5198483;28;20037;-73
2022/05/29 11:26:55;;;;;;;4.97;1.30;;;;;;;16.23;82.80;100285.38;5206604;28;20067;-74
2022/05/29 11:29:47;;;;;;;4.40;1.35;;;;;;;16.23;84.73;100278.31;5205774;28;20734;-72
2022/05/29 11:32:56;;;;;;;4.50;1.10;;;;;;;16.44;79.96;100269.09;5204603;28;20049;-73
2022/05/29 11:36:12;;;;;;;3.13;0.93;;;;;;;16.97;78.57;100261.16;5201916;28;20037;-74
2022/05/29 11:39:08;;;;;;;3.63;1.05;;;;;;;17.29;77.94;100254.53;5214541;28;20057;-74
2022/05/29 11:41:42;;;;;;;2.80;1.10;;;;;;;16.52;76.73;100248.31;5208441;28;20037;-73
2022/05/29 11:44:21;;;;;;;2.45;0.80;;;;;;;15.62;78.82;100262.00;5209477;28;20033;-73
2022/05/29 11:53:05;;;;;;;3.63;1.20;;;;;;;15.91;85.27;100262.81;5205549;28;20099;-74
2022/05/29 11:55:40;;;;;;;4.07;0.90;;;;;;;15.78;85.01;100268.00;5206721;28;20021;-74
2022/05/29 11:58:17;;;;;;;4.28;1.20;;;;;;;15.49;87.95;100265.44;5213036;28;20141;-71
2022/05/29 12:00:53;;;;;;;4.15;1.38;;;;;;;15.61;89.56;100260.28;5207206;28;20120;-74
2022/05/29 12:03:26;;;;;;;2.95;1.02;;;;;;;14.96;90.39;100265.09;5208370;28;20040;-73
2022/05/29 12:06:12;;;;;;;4.47;1.35;;;;;;;15.00;93.00;100264.84;5210324;28;20402;-73
2022/05/29 12:08:48;;;;;;;4.22;1.25;;;;;;;14.72;93.74;100260.41;5212784;28;20044;-74
2022/05/29 12:11:31;;;;;;;3.15;1.00;;;;;;;14.39;94.03;100259.72;5208826;28;20032;-73
2022/05/29 12:14:24;;;;;;;3.17;0.90;;;;;;;14.18;96.30;100253.00;5206840;28;20053;-73
2022/05/29 12:17:23;;;;;;;2.50;0.80;;;;;;;13.53;95.57;100253.03;5206223;28;20017;-73
2022/05/29 12:20:06;;;;;;;3.60;0.73;;;;;;;13.73;95.52;100255.50;5176122;28;20048;-73
2022/05/29 12:22:42;;;;;;;2.35;0.70;;;;;;;13.88;94.65;100254.66;5206901;28;20653;-73
2022/05/29 12:25:34;;;;;;;1.65;0.85;;;;;;;14.14;93.81;100249.69;5208707;28;20048;-73
2022/05/29 12:28:41;;;;;;;2.00;0.98;;;;;;;14.72;93.88;100242.84;5207473;28;20061;-72
2022/05/29 12:31:26;;;;;;;3.53;0.95;;;;;;;15.32;91.01;100232.22;5209216;28;20114;-73
2022/05/29 12:33:57;;;;;;;2.35;0.90;;;;;;;15.92;92.38;100241.66;5210028;28;20045;-73
2022/05/29 12:37:02;;;;;;;1.20;0.50;;;;;;;15.98;85.16;100237.75;5206391;28;20032;-73
2022/05/29 12:40:04;;;;;;;0.85;0.40;;;;;;;15.73;84.79;100235.81;5206881;28;20037;-73
2022/05/29 12:42:46;;;;;;;1.05;0.50;;;;;;;15.90;85.80;100227.69;5207113;28;20060;-73
2022/05/29 12:45:28;;;;;;;1.88;0.60;;;;;;;16.11;86.11;100226.38;5204163;28;20510;-74